createdAt,value
2023-03-02T00:03:04.764Z,1.52
2023-03-02T00:08:10.134Z,1.50
2023-03-02T00:13:14.178Z,1.50
2023-03-02T00:18:17.502Z,1.49
2023-03-02T00:23:20.767Z,1.47
2023-03-02T00:28:24.103Z,1.47
2023-03-02T00:33:27.291Z,1.49
2023-03-02T00:38:30.487Z,1.49
2023-03-02T00:43:33.703Z,1.50
2023-03-02T00:48:37.093Z,1.49
2023-03-02T00:53:41.255Z,1.47
2023-03-02T00:58:45.347Z,1.41
2023-03-02T01:03:48.820Z,1.36
2023-03-02T01:08:53.007Z,1.35
2023-03-02T01:13:56.339Z,1.33
2023-03-02T01:18:59.592Z,1.28
2023-03-02T01:24:02.986Z,1.23
2023-03-02T01:29:06.926Z,1.17
2023-03-02T01:34:10.163Z,1.14
2023-03-02T01:39:17.256Z,1.15
2023-03-02T01:44:41.581Z,1.14
2023-03-02T01:49:50.051Z,1.09
2023-03-02T01:54:56.669Z,1.08
2023-03-02T02:00:09.057Z,1.06
2023-03-02T02:05:23.260Z,1.03
2023-03-02T02:10:27.716Z,1.09
2023-03-02T02:15:31.053Z,1.08
2023-03-02T02:20:41.317Z,1.04
2023-03-02T02:26:13.903Z,0.95
2023-03-02T02:31:26.963Z,0.93
2023-03-02T02:36:35.435Z,0.92
2023-03-02T02:41:43.905Z,0.90
2023-03-02T02:46:46.960Z,0.82
2023-03-02T02:51:50.180Z,0.73
2023-03-02T02:56:54.529Z,0.67
2023-03-02T03:01:58.913Z,0.64
2023-03-02T03:07:06.159Z,0.62
2023-03-02T03:12:24.386Z,0.58
2023-03-02T03:17:29.137Z,0.57
2023-03-02T03:22:38.433Z,0.61
2023-03-02T03:27:43.290Z,0.62
2023-03-02T03:32:46.730Z,0.65
2023-03-02T03:37:52.450Z,0.67
2023-03-02T03:42:56.012Z,0.65
2023-03-02T03:47:59.616Z,0.63
2023-03-02T03:53:04.017Z,0.63
2023-03-02T03:58:07.839Z,0.61
2023-03-02T04:03:11.469Z,0.53
2023-03-02T04:08:14.819Z,0.52
2023-03-02T04:13:18.174Z,0.49
2023-03-02T04:18:21.550Z,0.49
2023-03-02T04:23:24.888Z,0.43
2023-03-02T04:28:28.209Z,0.40
2023-03-02T04:33:32.176Z,0.42
2023-03-02T04:38:35.453Z,0.48
2023-03-02T04:43:38.943Z,0.45
2023-03-02T04:48:42.184Z,0.45
2023-03-02T04:53:45.384Z,0.41
2023-03-02T04:58:49.574Z,0.41
2023-03-02T05:03:53.383Z,0.40
2023-03-02T05:08:59.938Z,0.37
2023-03-02T05:14:06.469Z,0.39
2023-03-02T05:19:12.290Z,0.37
2023-03-02T05:24:15.734Z,0.36
2023-03-02T05:29:19.000Z,0.33
2023-03-02T05:34:22.288Z,0.28
2023-03-02T05:39:25.540Z,0.25
2023-03-02T05:44:28.659Z,0.25
2023-03-02T05:49:33.151Z,0.38
2023-03-02T05:54:36.854Z,0.39
2023-03-02T05:59:40.168Z,0.41
2023-03-02T06:04:44.728Z,0.51
2023-03-02T06:09:48.560Z,0.50
2023-03-02T06:14:53.614Z,0.51
2023-03-02T06:20:11.431Z,0.57
2023-03-02T06:25:18.822Z,0.71
2023-03-02T06:30:24.500Z,0.82
2023-03-02T06:36:03.630Z,1.07
2023-03-02T06:41:07.455Z,2.07
2023-03-02T06:46:11.050Z,1.97
2023-03-02T06:51:14.306Z,1.93
2023-03-02T06:56:17.795Z,1.97
2023-03-02T07:01:21.257Z,2.06
2023-03-02T07:06:24.457Z,2.17
2023-03-02T07:11:27.663Z,2.23
2023-03-02T07:16:31.439Z,2.27
2023-03-02T07:21:34.963Z,2.40
2023-03-02T07:26:38.375Z,2.54
2023-03-02T07:31:44.385Z,2.62
2023-03-02T07:36:48.129Z,2.77
2023-03-02T07:41:51.244Z,2.95
2023-03-02T07:46:57.235Z,3.13
2023-03-02T07:52:00.466Z,3.32
2023-03-02T07:57:04.027Z,3.49
2023-03-02T08:02:07.605Z,3.65
2023-03-02T08:07:10.880Z,3.82
2023-03-02T08:12:14.484Z,4.02
2023-03-02T08:17:17.797Z,4.14
2023-03-02T08:22:21.606Z,4.26
2023-03-02T08:27:24.865Z,4.40
2023-03-02T08:32:28.181Z,4.55
2023-03-02T08:37:31.820Z,4.72
2023-03-02T08:42:35.106Z,4.87
2023-03-02T08:47:38.589Z,5.01
2023-03-02T08:52:41.828Z,5.17
2023-03-02T08:57:45.951Z,5.41
2023-03-02T09:02:49.212Z,5.57
2023-03-02T09:07:52.523Z,5.70
2023-03-02T09:12:55.673Z,5.85
2023-03-02T09:17:58.918Z,6.00
2023-03-02T09:23:02.139Z,6.20
2023-03-02T09:28:05.676Z,6.41
2023-03-02T09:33:09.228Z,6.97
2023-03-02T09:38:16.344Z,7.31
2023-03-02T09:43:45.625Z,7.31
2023-03-02T09:49:10.662Z,7.42
2023-03-02T09:54:19.607Z,7.50
2023-03-02T09:59:27.102Z,7.61
2023-03-02T10:04:39.101Z,7.73
2023-03-02T10:09:43.626Z,7.91
2023-03-02T10:14:57.515Z,8.08
2023-03-02T10:20:06.051Z,8.26
2023-03-02T10:25:31.581Z,8.55
2023-03-02T10:30:37.478Z,8.76
2023-03-02T10:35:50.195Z,8.96
2023-03-02T10:41:06.874Z,9.23
2023-03-02T10:46:12.654Z,9.55
2023-03-02T10:51:27.414Z,9.83
2023-03-02T10:56:32.394Z,10.08
2023-03-02T11:01:36.125Z,10.34
2023-03-02T11:06:39.546Z,10.51
2023-03-02T11:11:52.104Z,10.66
2023-03-02T11:16:56.912Z,10.81
2023-03-02T11:22:54.232Z,10.87
2023-03-02T11:28:05.832Z,11.00
2023-03-02T11:33:18.444Z,11.08
2023-03-02T11:38:41.747Z,11.18
2023-03-02T11:43:44.945Z,11.27
2023-03-02T11:48:53.046Z,11.17
2023-03-02T11:54:19.530Z,11.13
2023-03-02T11:59:26.528Z,11.24
2023-03-02T12:04:38.799Z,11.41
2023-03-02T12:09:43.038Z,11.64
2023-03-02T12:14:46.470Z,11.92
2023-03-02T12:19:55.919Z,12.12
2023-03-02T12:25:19.321Z,12.29
2023-03-02T12:30:28.149Z,12.36
2023-03-02T12:35:34.309Z,12.29
2023-03-02T12:40:57.679Z,12.30
2023-03-02T12:46:32.632Z,12.29
2023-03-02T12:52:22.173Z,12.31
2023-03-02T12:57:28.003Z,12.40
2023-03-02T13:02:36.419Z,12.42
2023-03-02T13:07:50.656Z,12.44
2023-03-02T13:12:54.127Z,12.49
2023-03-02T13:18:00.220Z,12.62
2023-03-02T13:23:03.948Z,12.77
2023-03-02T13:28:34.827Z,12.94
2023-03-02T13:33:44.924Z,13.22
2023-03-02T13:38:52.649Z,13.44
2023-03-02T13:43:57.279Z,13.40
2023-03-02T13:49:11.006Z,13.13
2023-03-02T13:54:17.400Z,12.69
2023-03-02T13:59:22.100Z,12.29
2023-03-02T14:04:25.624Z,12.12
2023-03-02T14:09:29.286Z,11.86
2023-03-02T14:14:38.038Z,11.57
2023-03-02T14:19:41.599Z,11.31
2023-03-02T14:24:46.371Z,11.05
2023-03-02T14:29:49.684Z,10.85
2023-03-02T14:34:53.087Z,10.71
2023-03-02T14:39:57.100Z,10.60
2023-03-02T14:45:00.511Z,10.54
2023-03-02T14:50:05.626Z,10.41
2023-03-02T14:55:32.781Z,10.31
2023-03-02T15:00:36.703Z,10.21
2023-03-02T15:05:42.167Z,10.09
2023-03-02T15:10:51.111Z,9.97
2023-03-02T15:15:54.712Z,9.85
2023-03-02T15:20:58.116Z,9.74
2023-03-02T15:26:04.826Z,9.67
2023-03-02T15:31:14.462Z,9.59
2023-03-02T15:36:18.159Z,9.51
2023-03-02T15:41:21.603Z,9.44
2023-03-02T15:46:25.420Z,9.37
2023-03-02T15:51:28.711Z,9.31
2023-03-02T15:56:42.306Z,9.23
2023-03-02T16:01:46.057Z,9.13
2023-03-02T16:06:49.410Z,9.04
2023-03-02T16:11:53.098Z,9.00
2023-03-02T16:16:56.732Z,8.85
2023-03-02T16:22:00.168Z,8.70
2023-03-02T16:27:05.212Z,8.59
2023-03-02T16:32:09.229Z,8.49
2023-03-02T16:37:12.570Z,8.39
2023-03-02T16:42:16.751Z,8.31
2023-03-02T16:47:20.237Z,8.23
2023-03-02T16:52:24.291Z,8.13
2023-03-02T16:57:27.765Z,8.01
2023-03-02T17:02:31.169Z,7.90
2023-03-02T17:07:34.980Z,7.94
2023-03-02T17:12:38.480Z,7.80
2023-03-02T17:17:42.982Z,7.63
2023-03-02T17:22:47.044Z,7.49
2023-03-02T17:27:50.313Z,7.36
2023-03-02T17:32:53.769Z,7.27
2023-03-02T17:37:57.208Z,7.20
2023-03-02T17:43:00.788Z,7.10
2023-03-02T17:48:05.058Z,7.00
2023-03-02T17:53:08.659Z,6.97
2023-03-02T17:58:12.166Z,6.90
2023-03-02T18:03:15.605Z,6.83
2023-03-02T18:08:18.790Z,6.78
2023-03-02T18:13:22.278Z,6.72
2023-03-02T18:18:25.539Z,6.63
2023-03-02T18:23:29.325Z,6.54
2023-03-02T18:28:32.654Z,6.47
2023-03-02T18:33:35.725Z,6.40
2023-03-02T18:38:38.847Z,6.33
2023-03-02T18:43:43.596Z,6.28
2023-03-02T18:48:50.319Z,6.22
2023-03-02T18:53:54.784Z,6.17
2023-03-02T18:58:57.982Z,6.11
2023-03-02T19:04:02.622Z,6.07
2023-03-02T19:09:06.480Z,6.02
2023-03-02T19:14:10.387Z,5.99
2023-03-02T19:19:14.176Z,6.00
2023-03-02T19:24:17.499Z,6.22
2023-03-02T19:29:22.306Z,6.15
2023-03-02T19:34:25.422Z,6.04
2023-03-02T19:39:28.654Z,5.95
2023-03-02T19:44:33.761Z,5.88
2023-03-02T19:49:37.914Z,5.81
2023-03-02T19:54:43.689Z,5.77
2023-03-02T19:59:46.967Z,5.66
2023-03-02T20:04:51.421Z,5.58
2023-03-02T20:09:54.808Z,5.51
2023-03-02T20:14:58.330Z,5.42
2023-03-02T20:20:03.961Z,5.36
2023-03-02T20:25:09.121Z,5.28
2023-03-02T20:30:22.599Z,5.22
2023-03-02T20:35:29.956Z,5.11
2023-03-02T20:40:34.364Z,5.06
2023-03-02T20:45:37.838Z,4.97
2023-03-02T20:50:42.660Z,4.91
2023-03-02T20:55:46.289Z,4.84
2023-03-02T21:00:49.605Z,4.77
2023-03-02T21:05:52.856Z,4.73
2023-03-02T21:10:56.661Z,4.71
2023-03-02T21:16:00.402Z,4.70
2023-03-02T21:21:04.227Z,4.69
2023-03-02T21:26:11.882Z,4.67
2023-03-02T21:31:18.486Z,4.62
2023-03-02T21:36:24.614Z,4.58
2023-03-02T21:41:28.298Z,4.54
2023-03-02T21:46:34.949Z,4.48
2023-03-02T21:51:38.509Z,4.40
2023-03-02T21:56:43.303Z,4.34
2023-03-02T22:01:46.728Z,4.26
2023-03-02T22:06:49.981Z,4.22
2023-03-02T22:11:53.323Z,4.15
2023-03-02T22:16:58.592Z,4.07
2023-03-02T22:22:03.602Z,4.00
2023-03-02T22:27:22.030Z,3.92
2023-03-02T22:32:30.750Z,3.83
2023-03-02T22:37:34.974Z,3.78
2023-03-02T22:42:38.319Z,3.73
2023-03-02T22:47:48.468Z,3.68
2023-03-02T22:52:53.699Z,3.64
2023-03-02T22:57:57.021Z,3.59
2023-03-02T23:03:00.339Z,3.57
2023-03-02T23:08:23.654Z,3.58
2023-03-02T23:13:40.069Z,3.58
2023-03-02T23:18:44.290Z,3.54
2023-03-02T23:23:49.401Z,3.52
2023-03-02T23:28:52.608Z,3.45
2023-03-02T23:33:55.830Z,3.39
2023-03-02T23:38:59.549Z,3.33
2023-03-02T23:44:03.593Z,3.31
2023-03-02T23:49:07.037Z,3.27
2023-03-02T23:54:10.464Z,3.21
2023-03-02T23:59:13.940Z,3.14
